sensor_id;sensor_type;location;lat;lon;timestamp;temperature;humidity
7588;DHT22;3835;48.850;8.938;2022-10-16T00:01:16;14.00;99.90
7588;DHT22;3835;48.850;8.938;2022-10-16T00:03:44;13.90;99.90
7588;DHT22;3835;48.850;8.938;2022-10-16T00:06:12;14.00;99.90
7588;DHT22;3835;48.850;8.938;2022-10-16T00:08:41;14.00;99.90
7588;DHT22;3835;48.850;8.938;2022-10-16T00:11:10;14.00;99.90
7588;DHT22;3835;48.850;8.938;2022-10-16T00:13:39;14.00;99.90
7588;DHT22;3835;48.850;8.938;2022-10-16T00:16:07;14.00;99.90
7588;DHT22;3835;48.850;8.938;2022-10-16T00:18:34;14.00;99.90
7588;DHT22;3835;48.850;8.938;2022-10-16T00:21:03;14.00;99.90
7588;DHT22;3835;48.850;8.938;2022-10-16T00:23:30;13.90;99.90
7588;DHT22;3835;48.850;8.938;2022-10-16T00:26:00;13.90;99.90
7588;DHT22;3835;48.850;8.938;2022-10-16T00:28:27;13.90;99.90
7588;DHT22;3835;48.850;8.938;2022-10-16T00:30:54;13.90;99.90
7588;DHT22;3835;48.850;8.938;2022-10-16T00:33:21;13.90;99.90
7588;DHT22;3835;48.850;8.938;2022-10-16T00:35:48;13.80;99.90
7588;DHT22;3835;48.850;8.938;2022-10-16T00:38:15;13.80;99.90
7588;DHT22;3835;48.850;8.938;2022-10-16T00:40:43;13.80;99.90
7588;DHT22;3835;48.850;8.938;2022-10-16T00:43:31;13.80;99.90
7588;DHT22;3835;48.850;8.938;2022-10-16T00:45:59;13.80;99.90
7588;DHT22;3835;48.850;8.938;2022-10-16T00:48:27;13.80;99.90
7588;DHT22;3835;48.850;8.938;2022-10-16T00:50:54;13.80;99.90
7588;DHT22;3835;48.850;8.938;2022-10-16T00:53:21;13.80;99.90
7588;DHT22;3835;48.850;8.938;2022-10-16T00:55:48;13.80;99.90
7588;DHT22;3835;48.850;8.938;2022-10-16T00:58:16;13.80;99.90
7588;DHT22;3835;48.850;8.938;2022-10-16T01:00:43;13.80;99.90
7588;DHT22;3835;48.850;8.938;2022-10-16T01:03:25;13.80;99.90
7588;DHT22;3835;48.850;8.938;2022-10-16T01:06:03;13.80;99.90
7588;DHT22;3835;48.850;8.938;2022-10-16T01:08:39;13.90;99.90
7588;DHT22;3835;48.850;8.938;2022-10-16T01:11:17;13.90;99.90
7588;DHT22;3835;48.850;8.938;2022-10-16T01:13:48;13.90;99.90
7588;DHT22;3835;48.850;8.938;2022-10-16T01:16:24;13.90;99.90
7588;DHT22;3835;48.850;8.938;2022-10-16T01:18:57;13.90;99.90
7588;DHT22;3835;48.850;8.938;2022-10-16T01:21:28;13.90;99.90
7588;DHT22;3835;48.850;8.938;2022-10-16T01:24:01;13.90;99.90
7588;DHT22;3835;48.850;8.938;2022-10-16T01:26:37;13.90;99.90
7588;DHT22;3835;48.850;8.938;2022-10-16T01:29:16;13.90;99.90
7588;DHT22;3835;48.850;8.938;2022-10-16T01:31:48;13.90;99.90
7588;DHT22;3835;48.850;8.938;2022-10-16T01:34:19;13.90;99.90
7588;DHT22;3835;48.850;8.938;2022-10-16T01:36:51;13.90;99.90
7588;DHT22;3835;48.850;8.938;2022-10-16T01:39:20;13.90;99.90
7588;DHT22;3835;48.850;8.938;2022-10-16T01:41:51;14.00;99.90
7588;DHT22;3835;48.850;8.938;2022-10-16T01:44:22;14.00;99.90
7588;DHT22;3835;48.850;8.938;2022-10-16T01:46:52;14.00;99.90
7588;DHT22;3835;48.850;8.938;2022-10-16T01:49:20;13.90;99.90
7588;DHT22;3835;48.850;8.938;2022-10-16T01:51:50;13.90;99.90
7588;DHT22;3835;48.850;8.938;2022-10-16T01:54:20;13.90;99.90
7588;DHT22;3835;48.850;8.938;2022-10-16T01:56:49;13.90;99.90
7588;DHT22;3835;48.850;8.938;2022-10-16T01:59:20;13.90;99.90
7588;DHT22;3835;48.850;8.938;2022-10-16T02:01:50;14.00;99.90
7588;DHT22;3835;48.850;8.938;2022-10-16T02:04:22;14.00;99.90
7588;DHT22;3835;48.850;8.938;2022-10-16T02:06:51;14.00;99.90
7588;DHT22;3835;48.850;8.938;2022-10-16T02:09:18;14.00;99.90
7588;DHT22;3835;48.850;8.938;2022-10-16T02:11:45;14.10;99.90
7588;DHT22;3835;48.850;8.938;2022-10-16T02:14:12;14.10;99.90
7588;DHT22;3835;48.850;8.938;2022-10-16T02:16:41;14.10;99.90
7588;DHT22;3835;48.850;8.938;2022-10-16T02:19:09;14.20;99.90
7588;DHT22;3835;48.850;8.938;2022-10-16T02:21:39;14.20;99.90
7588;DHT22;3835;48.850;8.938;2022-10-16T02:24:11;14.20;99.90
7588;DHT22;3835;48.850;8.938;2022-10-16T02:26:45;14.20;99.90
7588;DHT22;3835;48.850;8.938;2022-10-16T02:29:17;14.20;99.90
7588;DHT22;3835;48.850;8.938;2022-10-16T02:31:49;14.20;99.90
7588;DHT22;3835;48.850;8.938;2022-10-16T02:34:18;14.20;99.90
7588;DHT22;3835;48.850;8.938;2022-10-16T02:36:48;14.20;99.90
7588;DHT22;3835;48.850;8.938;2022-10-16T02:39:16;14.20;99.90
7588;DHT22;3835;48.850;8.938;2022-10-16T02:41:43;14.30;99.90
7588;DHT22;3835;48.850;8.938;2022-10-16T02:44:09;14.30;99.90
7588;DHT22;3835;48.850;8.938;2022-10-16T02:46:36;14.30;99.90
7588;DHT22;3835;48.850;8.938;2022-10-16T02:49:05;14.30;99.90
7588;DHT22;3835;48.850;8.938;2022-10-16T02:51:31;14.30;99.90
7588;DHT22;3835;48.850;8.938;2022-10-16T02:53:58;14.30;99.90
7588;DHT22;3835;48.850;8.938;2022-10-16T02:56:25;14.30;99.90
7588;DHT22;3835;48.850;8.938;2022-10-16T02:58:51;14.30;99.90
7588;DHT22;3835;48.850;8.938;2022-10-16T03:01:18;14.30;99.90
7588;DHT22;3835;48.850;8.938;2022-10-16T03:03:45;14.30;99.90
7588;DHT22;3835;48.850;8.938;2022-10-16T03:06:13;14.30;99.90
7588;DHT22;3835;48.850;8.938;2022-10-16T03:08:40;14.30;99.90
7588;DHT22;3835;48.850;8.938;2022-10-16T03:11:07;14.30;99.90
7588;DHT22;3835;48.850;8.938;2022-10-16T03:13:33;14.30;99.90
7588;DHT22;3835;48.850;8.938;2022-10-16T03:16:00;14.20;99.90
7588;DHT22;3835;48.850;8.938;2022-10-16T03:18:27;14.20;99.90
7588;DHT22;3835;48.850;8.938;2022-10-16T03:20:53;14.20;99.90
7588;DHT22;3835;48.850;8.938;2022-10-16T03:23:22;14.10;99.90
7588;DHT22;3835;48.850;8.938;2022-10-16T03:25:48;14.10;99.90
7588;DHT22;3835;48.850;8.938;2022-10-16T03:28:15;14.10;99.90
7588;DHT22;3835;48.850;8.938;2022-10-16T03:30:43;14.10;99.90
7588;DHT22;3835;48.850;8.938;2022-10-16T03:33:09;14.10;99.90
7588;DHT22;3835;48.850;8.938;2022-10-16T03:35:36;14.10;99.90
7588;DHT22;3835;48.850;8.938;2022-10-16T03:38:03;14.10;99.90
7588;DHT22;3835;48.850;8.938;2022-10-16T03:40:31;14.10;99.90
7588;DHT22;3835;48.850;8.938;2022-10-16T03:42:58;14.00;99.90
7588;DHT22;3835;48.850;8.938;2022-10-16T03:45:25;14.10;99.90
7588;DHT22;3835;48.850;8.938;2022-10-16T03:47:52;14.10;99.90
7588;DHT22;3835;48.850;8.938;2022-10-16T03:50:19;14.10;99.90
7588;DHT22;3835;48.850;8.938;2022-10-16T03:52:46;14.10;99.90
7588;DHT22;3835;48.850;8.938;2022-10-16T03:55:13;14.10;99.90
7588;DHT22;3835;48.850;8.938;2022-10-16T03:57:41;14.10;99.90
7588;DHT22;3835;48.850;8.938;2022-10-16T04:00:09;14.10;99.90
7588;DHT22;3835;48.850;8.938;2022-10-16T04:02:36;14.00;99.90
7588;DHT22;3835;48.850;8.938;2022-10-16T04:05:03;14.00;99.90
7588;DHT22;3835;48.850;8.938;2022-10-16T04:07:30;14.00;99.90
7588;DHT22;3835;48.850;8.938;2022-10-16T04:09:56;14.00;99.90
7588;DHT22;3835;48.850;8.938;2022-10-16T04:12:24;14.00;99.90
7588;DHT22;3835;48.850;8.938;2022-10-16T04:14:52;14.00;99.90
7588;DHT22;3835;48.850;8.938;2022-10-16T04:17:19;14.00;99.90
7588;DHT22;3835;48.850;8.938;2022-10-16T04:19:46;14.00;99.90
7588;DHT22;3835;48.850;8.938;2022-10-16T04:22:13;14.00;99.90
7588;DHT22;3835;48.850;8.938;2022-10-16T04:24:40;14.00;99.90
7588;DHT22;3835;48.850;8.938;2022-10-16T04:27:07;14.00;99.90
7588;DHT22;3835;48.850;8.938;2022-10-16T04:29:33;14.10;99.90
7588;DHT22;3835;48.850;8.938;2022-10-16T04:32:01;14.10;99.90
7588;DHT22;3835;48.850;8.938;2022-10-16T04:34:28;14.10;99.90
7588;DHT22;3835;48.850;8.938;2022-10-16T04:36:55;14.10;99.90
7588;DHT22;3835;48.850;8.938;2022-10-16T04:39:22;14.10;99.90
7588;DHT22;3835;48.850;8.938;2022-10-16T04:41:48;14.10;99.90
7588;DHT22;3835;48.850;8.938;2022-10-16T04:44:15;14.10;99.90
7588;DHT22;3835;48.850;8.938;2022-10-16T04:46:42;14.10;99.90
7588;DHT22;3835;48.850;8.938;2022-10-16T04:49:11;14.00;99.90
7588;DHT22;3835;48.850;8.938;2022-10-16T04:51:37;14.00;99.90
7588;DHT22;3835;48.850;8.938;2022-10-16T04:54:04;14.00;99.90
7588;DHT22;3835;48.850;8.938;2022-10-16T04:56:31;14.00;99.90
7588;DHT22;3835;48.850;8.938;2022-10-16T04:58:58;14.00;99.90
7588;DHT22;3835;48.850;8.938;2022-10-16T05:01:24;14.00;99.90
7588;DHT22;3835;48.850;8.938;2022-10-16T05:03:51;14.00;99.90
7588;DHT22;3835;48.850;8.938;2022-10-16T05:06:19;14.00;99.90
7588;DHT22;3835;48.850;8.938;2022-10-16T05:08:46;14.00;99.90
7588;DHT22;3835;48.850;8.938;2022-10-16T05:11:13;14.00;99.90
7588;DHT22;3835;48.850;8.938;2022-10-16T05:13:39;14.00;99.90
7588;DHT22;3835;48.850;8.938;2022-10-16T05:16:06;14.00;99.90
7588;DHT22;3835;48.850;8.938;2022-10-16T05:18:33;14.00;99.90
7588;DHT22;3835;48.850;8.938;2022-10-16T05:21:00;13.90;99.90
7588;DHT22;3835;48.850;8.938;2022-10-16T05:23:28;13.90;99.90
7588;DHT22;3835;48.850;8.938;2022-10-16T05:25:55;13.90;99.90
7588;DHT22;3835;48.850;8.938;2022-10-16T05:28:23;13.90;99.90
7588;DHT22;3835;48.850;8.938;2022-10-16T05:30:50;13.90;99.90
7588;DHT22;3835;48.850;8.938;2022-10-16T05:33:19;13.90;99.90
7588;DHT22;3835;48.850;8.938;2022-10-16T05:35:46;13.80;99.90
7588;DHT22;3835;48.850;8.938;2022-10-16T05:38:13;13.80;99.90
7588;DHT22;3835;48.850;8.938;2022-10-16T05:40:41;13.80;99.90
7588;DHT22;3835;48.850;8.938;2022-10-16T05:43:07;13.80;99.90
7588;DHT22;3835;48.850;8.938;2022-10-16T05:45:34;13.80;99.90
7588;DHT22;3835;48.850;8.938;2022-10-16T05:48:01;13.80;99.90
7588;DHT22;3835;48.850;8.938;2022-10-16T05:50:28;13.80;99.90
7588;DHT22;3835;48.850;8.938;2022-10-16T05:52:55;13.90;99.90
7588;DHT22;3835;48.850;8.938;2022-10-16T05:55:21;13.90;99.90
7588;DHT22;3835;48.850;8.938;2022-10-16T05:57:49;13.90;99.90
7588;DHT22;3835;48.850;8.938;2022-10-16T06:00:16;13.90;99.90
7588;DHT22;3835;48.850;8.938;2022-10-16T06:02:43;14.00;99.90
7588;DHT22;3835;48.850;8.938;2022-10-16T06:05:10;14.00;99.90
7588;DHT22;3835;48.850;8.938;2022-10-16T06:07:36;14.00;99.90
7588;DHT22;3835;48.850;8.938;2022-10-16T06:10:04;14.00;99.90
7588;DHT22;3835;48.850;8.938;2022-10-16T06:12:31;14.00;99.90
7588;DHT22;3835;48.850;8.938;2022-10-16T06:14:59;14.00;99.90
7588;DHT22;3835;48.850;8.938;2022-10-16T06:17:26;14.10;99.90
7588;DHT22;3835;48.850;8.938;2022-10-16T06:19:52;14.10;99.90
7588;DHT22;3835;48.850;8.938;2022-10-16T06:22:19;14.10;99.90
7588;DHT22;3835;48.850;8.938;2022-10-16T06:24:46;14.10;99.90
7588;DHT22;3835;48.850;8.938;2022-10-16T06:27:13;14.10;99.90
7588;DHT22;3835;48.850;8.938;2022-10-16T06:29:40;14.10;99.90
7588;DHT22;3835;48.850;8.938;2022-10-16T06:32:09;14.20;99.90
7588;DHT22;3835;48.850;8.938;2022-10-16T06:34:36;14.10;99.90
7588;DHT22;3835;48.850;8.938;2022-10-16T06:37:05;14.30;99.90
7588;DHT22;3835;48.850;8.938;2022-10-16T06:39:32;14.40;99.90
7588;DHT22;3835;48.850;8.938;2022-10-16T06:41:59;14.40;99.90
7588;DHT22;3835;48.850;8.938;2022-10-16T06:44:25;14.50;99.90
7588;DHT22;3835;48.850;8.938;2022-10-16T06:46:52;14.60;99.90
7588;DHT22;3835;48.850;8.938;2022-10-16T06:49:20;14.60;99.90
7588;DHT22;3835;48.850;8.938;2022-10-16T06:51:48;14.60;99.90
7588;DHT22;3835;48.850;8.938;2022-10-16T06:54:15;14.70;99.90
7588;DHT22;3835;48.850;8.938;2022-10-16T06:56:43;14.80;99.90
7588;DHT22;3835;48.850;8.938;2022-10-16T06:59:10;14.80;99.90
7588;DHT22;3835;48.850;8.938;2022-10-16T07:01:37;14.90;99.90
7588;DHT22;3835;48.850;8.938;2022-10-16T07:04:03;14.90;99.90
7588;DHT22;3835;48.850;8.938;2022-10-16T07:06:33;14.90;99.90
7588;DHT22;3835;48.850;8.938;2022-10-16T07:09:04;15.00;99.90
7588;DHT22;3835;48.850;8.938;2022-10-16T07:11:31;15.00;99.90
7588;DHT22;3835;48.850;8.938;2022-10-16T07:13:58;15.00;99.90
7588;DHT22;3835;48.850;8.938;2022-10-16T07:16:27;15.00;99.90
7588;DHT22;3835;48.850;8.938;2022-10-16T07:18:54;15.00;99.90
7588;DHT22;3835;48.850;8.938;2022-10-16T07:21:25;14.90;99.90
7588;DHT22;3835;48.850;8.938;2022-10-16T07:23:55;14.90;99.90
7588;DHT22;3835;48.850;8.938;2022-10-16T07:26:23;14.90;99.90
7588;DHT22;3835;48.850;8.938;2022-10-16T07:28:50;14.90;99.90
7588;DHT22;3835;48.850;8.938;2022-10-16T07:31:19;14.90;99.90
7588;DHT22;3835;48.850;8.938;2022-10-16T07:33:46;14.90;99.90
7588;DHT22;3835;48.850;8.938;2022-10-16T07:36:14;15.00;99.90
7588;DHT22;3835;48.850;8.938;2022-10-16T07:38:42;15.00;99.90
7588;DHT22;3835;48.850;8.938;2022-10-16T07:41:12;15.20;99.90
7588;DHT22;3835;48.850;8.938;2022-10-16T07:43:39;15.40;99.90
7588;DHT22;3835;48.850;8.938;2022-10-16T07:46:06;15.60;99.90
7588;DHT22;3835;48.850;8.938;2022-10-16T07:48:34;15.80;99.90
7588;DHT22;3835;48.850;8.938;2022-10-16T07:51:03;16.20;99.90
7588;DHT22;3835;48.850;8.938;2022-10-16T07:53:30;16.40;99.90
7588;DHT22;3835;48.850;8.938;2022-10-16T07:55:58;16.70;99.90
7588;DHT22;3835;48.850;8.938;2022-10-16T07:58:27;16.90;99.90
7588;DHT22;3835;48.850;8.938;2022-10-16T08:00:54;17.10;99.90
7588;DHT22;3835;48.850;8.938;2022-10-16T08:03:21;17.30;99.90
7588;DHT22;3835;48.850;8.938;2022-10-16T08:05:48;17.50;99.90
7588;DHT22;3835;48.850;8.938;2022-10-16T08:08:18;17.60;99.90
7588;DHT22;3835;48.850;8.938;2022-10-16T08:10:45;17.70;99.90
7588;DHT22;3835;48.850;8.938;2022-10-16T08:13:12;17.80;99.90
7588;DHT22;3835;48.850;8.938;2022-10-16T08:15:41;18.00;99.90
7588;DHT22;3835;48.850;8.938;2022-10-16T08:18:10;18.10;99.90
7588;DHT22;3835;48.850;8.938;2022-10-16T08:20:38;18.20;99.90
7588;DHT22;3835;48.850;8.938;2022-10-16T08:23:06;18.30;99.90
7588;DHT22;3835;48.850;8.938;2022-10-16T08:25:34;18.20;99.90
7588;DHT22;3835;48.850;8.938;2022-10-16T08:28:03;18.20;99.90
7588;DHT22;3835;48.850;8.938;2022-10-16T08:30:30;18.10;99.90
7588;DHT22;3835;48.850;8.938;2022-10-16T08:32:59;18.00;99.90
7588;DHT22;3835;48.850;8.938;2022-10-16T08:35:26;17.90;99.90
7588;DHT22;3835;48.850;8.938;2022-10-16T08:37:53;17.90;99.90
7588;DHT22;3835;48.850;8.938;2022-10-16T08:40:23;18.00;99.90
7588;DHT22;3835;48.850;8.938;2022-10-16T08:43:05;18.00;99.90
7588;DHT22;3835;48.850;8.938;2022-10-16T08:45:42;18.00;99.90
7588;DHT22;3835;48.850;8.938;2022-10-16T08:48:20;17.90;99.90
7588;DHT22;3835;48.850;8.938;2022-10-16T08:50:51;18.10;99.90
7588;DHT22;3835;48.850;8.938;2022-10-16T08:53:22;18.00;99.90
7588;DHT22;3835;48.850;8.938;2022-10-16T08:55:52;18.00;99.90
7588;DHT22;3835;48.850;8.938;2022-10-16T08:58:20;18.10;99.90
7588;DHT22;3835;48.850;8.938;2022-10-16T09:00:51;18.20;99.90
7588;DHT22;3835;48.850;8.938;2022-10-16T09:03:35;18.10;99.90
7588;DHT22;3835;48.850;8.938;2022-10-16T09:06:17;18.00;99.90
7588;DHT22;3835;48.850;8.938;2022-10-16T09:08:58;18.00;99.90
7588;DHT22;3835;48.850;8.938;2022-10-16T09:11:41;18.00;99.90
7588;DHT22;3835;48.850;8.938;2022-10-16T09:14:23;18.10;99.90
7588;DHT22;3835;48.850;8.938;2022-10-16T09:17:00;18.20;99.90
7588;DHT22;3835;48.850;8.938;2022-10-16T09:19:36;18.10;99.90
7588;DHT22;3835;48.850;8.938;2022-10-16T09:22:12;18.10;99.90
7588;DHT22;3835;48.850;8.938;2022-10-16T09:24:40;18.00;99.90
7588;DHT22;3835;48.850;8.938;2022-10-16T09:27:08;17.80;99.90
7588;DHT22;3835;48.850;8.938;2022-10-16T09:29:36;17.80;99.90
7588;DHT22;3835;48.850;8.938;2022-10-16T09:32:11;17.90;99.90
7588;DHT22;3835;48.850;8.938;2022-10-16T09:34:43;18.00;99.90
7588;DHT22;3835;48.850;8.938;2022-10-16T09:37:13;18.10;99.90
7588;DHT22;3835;48.850;8.938;2022-10-16T09:39:44;18.30;99.90
7588;DHT22;3835;48.850;8.938;2022-10-16T09:42:14;18.40;99.90
7588;DHT22;3835;48.850;8.938;2022-10-16T09:44:41;18.60;99.90
7588;DHT22;3835;48.850;8.938;2022-10-16T09:47:14;18.90;99.90
7588;DHT22;3835;48.850;8.938;2022-10-16T09:49:52;19.20;99.90
7588;DHT22;3835;48.850;8.938;2022-10-16T09:52:19;19.50;99.90
7588;DHT22;3835;48.850;8.938;2022-10-16T09:54:51;19.60;99.90
7588;DHT22;3835;48.850;8.938;2022-10-16T09:57:18;19.60;99.90
7588;DHT22;3835;48.850;8.938;2022-10-16T09:59:46;19.60;99.90
7588;DHT22;3835;48.850;8.938;2022-10-16T10:02:14;19.60;99.90
7588;DHT22;3835;48.850;8.938;2022-10-16T10:04:51;19.60;99.90
7588;DHT22;3835;48.850;8.938;2022-10-16T10:07:24;19.80;99.90
7588;DHT22;3835;48.850;8.938;2022-10-16T10:09:51;19.90;99.90
7588;DHT22;3835;48.850;8.938;2022-10-16T10:12:21;20.00;99.90
7588;DHT22;3835;48.850;8.938;2022-10-16T10:14:49;20.20;99.90
7588;DHT22;3835;48.850;8.938;2022-10-16T10:17:18;20.30;99.90
7588;DHT22;3835;48.850;8.938;2022-10-16T10:19:52;20.30;99.90
7588;DHT22;3835;48.850;8.938;2022-10-16T10:22:26;20.10;99.90
7588;DHT22;3835;48.850;8.938;2022-10-16T10:28:10;20.00;99.90
7588;DHT22;3835;48.850;8.938;2022-10-16T10:30:49;20.20;99.90
7588;DHT22;3835;48.850;8.938;2022-10-16T10:33:25;20.40;99.90
7588;DHT22;3835;48.850;8.938;2022-10-16T10:36:03;20.80;99.90
7588;DHT22;3835;48.850;8.938;2022-10-16T10:38:39;20.90;99.90
7588;DHT22;3835;48.850;8.938;2022-10-16T10:41:20;21.20;99.90
7588;DHT22;3835;48.850;8.938;2022-10-16T10:43:59;21.60;99.90
7588;DHT22;3835;48.850;8.938;2022-10-16T10:46:33;21.80;99.90
7588;DHT22;3835;48.850;8.938;2022-10-16T10:49:17;21.80;99.90
7588;DHT22;3835;48.850;8.938;2022-10-16T10:51:57;21.70;99.90
7588;DHT22;3835;48.850;8.938;2022-10-16T10:54:30;21.50;99.90
7588;DHT22;3835;48.850;8.938;2022-10-16T10:57:02;21.50;99.90
7588;DHT22;3835;48.850;8.938;2022-10-16T11:00:00;21.30;99.90
7588;DHT22;3835;48.850;8.938;2022-10-16T11:02:36;21.30;99.90
7588;DHT22;3835;48.850;8.938;2022-10-16T11:05:23;21.20;99.90
7588;DHT22;3835;48.850;8.938;2022-10-16T11:07:59;21.10;99.90
7588;DHT22;3835;48.850;8.938;2022-10-16T11:10:30;21.00;99.90
7588;DHT22;3835;48.850;8.938;2022-10-16T11:13:07;20.90;99.90
7588;DHT22;3835;48.850;8.938;2022-10-16T11:15:39;20.90;99.90
7588;DHT22;3835;48.850;8.938;2022-10-16T11:18:13;21.00;99.90
7588;DHT22;3835;48.850;8.938;2022-10-16T11:20:47;21.10;99.90
7588;DHT22;3835;48.850;8.938;2022-10-16T11:23:22;21.20;99.90
7588;DHT22;3835;48.850;8.938;2022-10-16T11:25:50;21.50;99.90
7588;DHT22;3835;48.850;8.938;2022-10-16T11:28:20;21.60;99.90
7588;DHT22;3835;48.850;8.938;2022-10-16T11:30:53;21.70;99.90
7588;DHT22;3835;48.850;8.938;2022-10-16T11:33:27;21.90;99.90
7588;DHT22;3835;48.850;8.938;2022-10-16T11:36:02;22.00;99.90
7588;DHT22;3835;48.850;8.938;2022-10-16T11:38:37;22.20;99.90
7588;DHT22;3835;48.850;8.938;2022-10-16T11:41:13;22.40;99.90
7588;DHT22;3835;48.850;8.938;2022-10-16T11:43:45;22.30;99.90
7588;DHT22;3835;48.850;8.938;2022-10-16T11:46:16;22.30;99.90
7588;DHT22;3835;48.850;8.938;2022-10-16T11:52:36;22.30;99.90
7588;DHT22;3835;48.850;8.938;2022-10-16T11:55:31;22.50;99.90
7588;DHT22;3835;48.850;8.938;2022-10-16T11:58:03;22.60;99.90
7588;DHT22;3835;48.850;8.938;2022-10-16T12:00:38;22.40;99.90
7588;DHT22;3835;48.850;8.938;2022-10-16T12:03:13;22.20;99.90
7588;DHT22;3835;48.850;8.938;2022-10-16T12:08:36;21.90;99.90
7588;DHT22;3835;48.850;8.938;2022-10-16T12:11:20;21.80;99.90
7588;DHT22;3835;48.850;8.938;2022-10-16T12:13:47;21.70;99.90
7588;DHT22;3835;48.850;8.938;2022-10-16T12:16:22;21.80;99.90
7588;DHT22;3835;48.850;8.938;2022-10-16T12:19:03;21.90;99.90
7588;DHT22;3835;48.850;8.938;2022-10-16T12:21:36;21.70;99.90
7588;DHT22;3835;48.850;8.938;2022-10-16T12:24:03;21.60;99.90
7588;DHT22;3835;48.850;8.938;2022-10-16T12:26:33;21.50;99.90
7588;DHT22;3835;48.850;8.938;2022-10-16T12:29:13;21.60;99.90
7588;DHT22;3835;48.850;8.938;2022-10-16T12:31:44;21.70;99.90
7588;DHT22;3835;48.850;8.938;2022-10-16T12:34:21;21.70;99.90
7588;DHT22;3835;48.850;8.938;2022-10-16T12:36:49;21.70;99.90
7588;DHT22;3835;48.850;8.938;2022-10-16T12:39:21;21.70;99.90
7588;DHT22;3835;48.850;8.938;2022-10-16T12:42:00;21.50;99.90
7588;DHT22;3835;48.850;8.938;2022-10-16T12:44:32;21.30;99.90
7588;DHT22;3835;48.850;8.938;2022-10-16T12:46:59;21.10;99.90
7588;DHT22;3835;48.850;8.938;2022-10-16T12:49:36;21.00;99.90
7588;DHT22;3835;48.850;8.938;2022-10-16T12:52:04;21.00;99.90
7588;DHT22;3835;48.850;8.938;2022-10-16T12:54:36;21.00;99.90
7588;DHT22;3835;48.850;8.938;2022-10-16T12:57:39;21.10;99.90
7588;DHT22;3835;48.850;8.938;2022-10-16T13:00:14;21.10;99.90
7588;DHT22;3835;48.850;8.938;2022-10-16T13:03:15;21.20;99.90
7588;DHT22;3835;48.850;8.938;2022-10-16T13:05:57;21.20;99.90
7588;DHT22;3835;48.850;8.938;2022-10-16T13:11:51;21.30;99.90
7588;DHT22;3835;48.850;8.938;2022-10-16T13:17:21;21.30;99.90
7588;DHT22;3835;48.850;8.938;2022-10-16T13:19:55;21.20;99.90
7588;DHT22;3835;48.850;8.938;2022-10-16T13:22:32;21.20;99.90
7588;DHT22;3835;48.850;8.938;2022-10-16T13:25:12;21.20;99.90
7588;DHT22;3835;48.850;8.938;2022-10-16T13:27:44;21.30;99.90
7588;DHT22;3835;48.850;8.938;2022-10-16T13:30:16;21.30;99.90
7588;DHT22;3835;48.850;8.938;2022-10-16T13:32:45;21.20;99.90
7588;DHT22;3835;48.850;8.938;2022-10-16T13:35:20;21.20;99.90
7588;DHT22;3835;48.850;8.938;2022-10-16T13:40:29;21.20;99.90
7588;DHT22;3835;48.850;8.938;2022-10-16T13:45:33;21.30;99.90
7588;DHT22;3835;48.850;8.938;2022-10-16T13:48:03;21.20;99.90
7588;DHT22;3835;48.850;8.938;2022-10-16T13:50:30;21.10;99.90
7588;DHT22;3835;48.850;8.938;2022-10-16T13:53:04;21.00;99.90
7588;DHT22;3835;48.850;8.938;2022-10-16T13:55:31;20.90;99.90
7588;DHT22;3835;48.850;8.938;2022-10-16T13:58:05;21.00;99.90
7588;DHT22;3835;48.850;8.938;2022-10-16T14:00:33;21.10;99.90
7588;DHT22;3835;48.850;8.938;2022-10-16T14:03:02;21.10;99.90
7588;DHT22;3835;48.850;8.938;2022-10-16T14:05:29;21.10;99.90
7588;DHT22;3835;48.850;8.938;2022-10-16T14:07:56;21.00;99.90
7588;DHT22;3835;48.850;8.938;2022-10-16T14:10:26;21.00;99.90
7588;DHT22;3835;48.850;8.938;2022-10-16T14:12:58;20.90;99.90
7588;DHT22;3835;48.850;8.938;2022-10-16T14:15:26;20.90;99.90
7588;DHT22;3835;48.850;8.938;2022-10-16T14:17:55;20.90;99.90
7588;DHT22;3835;48.850;8.938;2022-10-16T14:20:26;20.80;99.90
7588;DHT22;3835;48.850;8.938;2022-10-16T14:23:00;20.80;99.90
7588;DHT22;3835;48.850;8.938;2022-10-16T14:25:29;20.80;99.90
7588;DHT22;3835;48.850;8.938;2022-10-16T14:27:57;20.70;99.90
7588;DHT22;3835;48.850;8.938;2022-10-16T14:30:25;20.70;99.90
7588;DHT22;3835;48.850;8.938;2022-10-16T14:32:58;20.70;99.90
7588;DHT22;3835;48.850;8.938;2022-10-16T14:35:28;20.70;99.90
7588;DHT22;3835;48.850;8.938;2022-10-16T14:37:56;20.70;99.90
7588;DHT22;3835;48.850;8.938;2022-10-16T14:40:26;20.70;99.90
7588;DHT22;3835;48.850;8.938;2022-10-16T14:42:53;20.70;99.90
7588;DHT22;3835;48.850;8.938;2022-10-16T14:45:23;20.70;99.90
7588;DHT22;3835;48.850;8.938;2022-10-16T14:47:53;20.70;99.90
7588;DHT22;3835;48.850;8.938;2022-10-16T14:50:22;20.70;99.90
7588;DHT22;3835;48.850;8.938;2022-10-16T14:52:49;20.80;99.90
7588;DHT22;3835;48.850;8.938;2022-10-16T14:55:17;20.80;99.90
7588;DHT22;3835;48.850;8.938;2022-10-16T14:57:44;20.70;99.90
7588;DHT22;3835;48.850;8.938;2022-10-16T15:00:18;20.60;99.90
7588;DHT22;3835;48.850;8.938;2022-10-16T15:02:46;20.60;99.90
7588;DHT22;3835;48.850;8.938;2022-10-16T15:05:16;20.50;99.90
7588;DHT22;3835;48.850;8.938;2022-10-16T15:07:45;20.40;99.90
7588;DHT22;3835;48.850;8.938;2022-10-16T15:10:13;20.30;99.90
7588;DHT22;3835;48.850;8.938;2022-10-16T15:12:40;20.30;99.90
7588;DHT22;3835;48.850;8.938;2022-10-16T15:15:24;20.10;99.90
7588;DHT22;3835;48.850;8.938;2022-10-16T15:17:52;20.10;99.90
7588;DHT22;3835;48.850;8.938;2022-10-16T15:20:22;20.00;99.90
7588;DHT22;3835;48.850;8.938;2022-10-16T15:22:50;19.90;99.90
7588;DHT22;3835;48.850;8.938;2022-10-16T15:25:30;19.90;99.90
7588;DHT22;3835;48.850;8.938;2022-10-16T15:27:58;19.90;99.90
7588;DHT22;3835;48.850;8.938;2022-10-16T15:30:25;19.80;99.90
7588;DHT22;3835;48.850;8.938;2022-10-16T15:32:52;19.80;99.90
7588;DHT22;3835;48.850;8.938;2022-10-16T15:35:19;19.80;99.90
7588;DHT22;3835;48.850;8.938;2022-10-16T15:37:46;19.80;99.90
7588;DHT22;3835;48.850;8.938;2022-10-16T15:40:16;19.80;99.90
7588;DHT22;3835;48.850;8.938;2022-10-16T15:42:43;19.80;99.90
7588;DHT22;3835;48.850;8.938;2022-10-16T15:45:11;19.80;99.90
7588;DHT22;3835;48.850;8.938;2022-10-16T15:47:38;19.80;99.90
7588;DHT22;3835;48.850;8.938;2022-10-16T15:50:08;19.80;99.90
7588;DHT22;3835;48.850;8.938;2022-10-16T15:52:36;19.70;99.90
7588;DHT22;3835;48.850;8.938;2022-10-16T15:55:05;19.60;99.90
7588;DHT22;3835;48.850;8.938;2022-10-16T15:57:33;19.50;99.90
7588;DHT22;3835;48.850;8.938;2022-10-16T15:59:59;19.40;99.90
7588;DHT22;3835;48.850;8.938;2022-10-16T16:02:26;19.30;99.90
7588;DHT22;3835;48.850;8.938;2022-10-16T16:04:53;19.20;99.90
7588;DHT22;3835;48.850;8.938;2022-10-16T16:07:20;19.10;99.90
7588;DHT22;3835;48.850;8.938;2022-10-16T16:09:46;19.00;99.90
7588;DHT22;3835;48.850;8.938;2022-10-16T16:12:13;18.90;99.90
7588;DHT22;3835;48.850;8.938;2022-10-16T16:14:41;18.80;99.90
7588;DHT22;3835;48.850;8.938;2022-10-16T16:17:11;18.70;99.90
7588;DHT22;3835;48.850;8.938;2022-10-16T16:19:38;18.60;99.90
7588;DHT22;3835;48.850;8.938;2022-10-16T16:22:05;18.50;99.90
7588;DHT22;3835;48.850;8.938;2022-10-16T16:24:32;18.50;99.90
7588;DHT22;3835;48.850;8.938;2022-10-16T16:26:58;18.40;99.90
7588;DHT22;3835;48.850;8.938;2022-10-16T16:29:25;18.30;99.90
7588;DHT22;3835;48.850;8.938;2022-10-16T16:31:53;18.20;99.90
7588;DHT22;3835;48.850;8.938;2022-10-16T16:34:23;18.10;99.90
7588;DHT22;3835;48.850;8.938;2022-10-16T16:36:50;18.10;99.90
7588;DHT22;3835;48.850;8.938;2022-10-16T16:39:17;18.00;99.90
7588;DHT22;3835;48.850;8.938;2022-10-16T16:41:44;17.90;99.90